sensor_id;sensor_type;location;lat;lon;timestamp;P1;durP1;ratioP1;P2;durP2;ratioP2
28627;SDS011;15815;46.760;19.604;2023-02-28T00:01:45;15.68;;;10.25;;
28627;SDS011;15815;46.760;19.604;2023-02-28T00:04:11;14.52;;;10.13;;
28627;SDS011;15815;46.760;19.604;2023-02-28T00:06:37;18.80;;;11.20;;
28627;SDS011;15815;46.760;19.604;2023-02-28T00:09:03;20.70;;;11.40;;
28627;SDS011;15815;46.760;19.604;2023-02-28T00:11:30;18.23;;;10.73;;
28627;SDS011;15815;46.760;19.604;2023-02-28T00:13:55;15.77;;;10.57;;
28627;SDS011;15815;46.760;19.604;2023-02-28T00:16:23;20.70;;;11.63;;
28627;SDS011;15815;46.760;19.604;2023-02-28T00:18:48;25.85;;;11.95;;
28627;SDS011;15815;46.760;19.604;2023-02-28T00:21:15;21.33;;;11.40;;
28627;SDS011;15815;46.760;19.604;2023-02-28T00:23:42;23.95;;;11.93;;
28627;SDS011;15815;46.760;19.604;2023-02-28T00:26:07;25.13;;;12.55;;
28627;SDS011;15815;46.760;19.604;2023-02-28T00:28:33;21.23;;;12.60;;
28627;SDS011;15815;46.760;19.604;2023-02-28T00:31:02;19.98;;;12.48;;
28627;SDS011;15815;46.760;19.604;2023-02-28T00:33:27;19.73;;;11.98;;
28627;SDS011;15815;46.760;19.604;2023-02-28T00:36:00;18.52;;;11.80;;
28627;SDS011;15815;46.760;19.604;2023-02-28T00:38:33;21.67;;;11.88;;
28627;SDS011;15815;46.760;19.604;2023-02-28T00:40:59;18.58;;;10.27;;
28627;SDS011;15815;46.760;19.604;2023-02-28T00:43:24;21.55;;;11.30;;
28627;SDS011;15815;46.760;19.604;2023-02-28T00:45:50;15.80;;;10.57;;
28627;SDS011;15815;46.760;19.604;2023-02-28T00:48:15;15.65;;;9.52;;
28627;SDS011;15815;46.760;19.604;2023-02-28T00:50:41;18.73;;;11.02;;
28627;SDS011;15815;46.760;19.604;2023-02-28T00:53:06;16.30;;;10.73;;
28627;SDS011;15815;46.760;19.604;2023-02-28T00:55:32;14.40;;;9.20;;
28627;SDS011;15815;46.760;19.604;2023-02-28T00:57:59;15.32;;;9.10;;
28627;SDS011;15815;46.760;19.604;2023-02-28T01:00:25;19.13;;;11.02;;
28627;SDS011;15815;46.760;19.604;2023-02-28T01:02:51;20.42;;;10.25;;
28627;SDS011;15815;46.760;19.604;2023-02-28T01:05:16;16.48;;;9.90;;
28627;SDS011;15815;46.760;19.604;2023-02-28T01:07:42;17.23;;;9.57;;
28627;SDS011;15815;46.760;19.604;2023-02-28T01:10:08;15.77;;;9.95;;
28627;SDS011;15815;46.760;19.604;2023-02-28T01:12:34;19.05;;;9.82;;
28627;SDS011;15815;46.760;19.604;2023-02-28T01:15:00;21.20;;;10.48;;
28627;SDS011;15815;46.760;19.604;2023-02-28T01:17:25;16.65;;;10.80;;
28627;SDS011;15815;46.760;19.604;2023-02-28T01:19:52;17.27;;;10.40;;
28627;SDS011;15815;46.760;19.604;2023-02-28T01:22:21;16.58;;;11.18;;
28627;SDS011;15815;46.760;19.604;2023-02-28T01:24:47;19.50;;;11.82;;
28627;SDS011;15815;46.760;19.604;2023-02-28T01:27:12;22.50;;;12.95;;
28627;SDS011;15815;46.760;19.604;2023-02-28T01:29:39;24.27;;;12.60;;
28627;SDS011;15815;46.760;19.604;2023-02-28T01:32:05;23.30;;;13.80;;
28627;SDS011;15815;46.760;19.604;2023-02-28T01:34:30;21.13;;;12.70;;
28627;SDS011;15815;46.760;19.604;2023-02-28T01:36:57;25.60;;;15.05;;
28627;SDS011;15815;46.760;19.604;2023-02-28T01:39:22;24.75;;;14.88;;
28627;SDS011;15815;46.760;19.604;2023-02-28T01:41:48;26.80;;;14.45;;
28627;SDS011;15815;46.760;19.604;2023-02-28T01:47:17;18.02;;;11.90;;
28627;SDS011;15815;46.760;19.604;2023-02-28T01:49:46;19.83;;;10.35;;
28627;SDS011;15815;46.760;19.604;2023-02-28T01:52:15;15.25;;;10.18;;
28627;SDS011;15815;46.760;19.604;2023-02-28T01:54:41;17.75;;;10.43;;
28627;SDS011;15815;46.760;19.604;2023-02-28T01:57:10;15.02;;;10.10;;
28627;SDS011;15815;46.760;19.604;2023-02-28T01:59:50;18.50;;;10.35;;
28627;SDS011;15815;46.760;19.604;2023-02-28T02:02:21;17.38;;;11.35;;
28627;SDS011;15815;46.760;19.604;2023-02-28T02:04:56;39.55;;;18.55;;
28627;SDS011;15815;46.760;19.604;2023-02-28T02:07:40;26.27;;;15.40;;
28627;SDS011;15815;46.760;19.604;2023-02-28T02:10:14;29.02;;;15.30;;
28627;SDS011;15815;46.760;19.604;2023-02-28T02:27:19;20.75;;;12.02;;
28627;SDS011;15815;46.760;19.604;2023-02-28T02:35:19;19.13;;;11.45;;
28627;SDS011;15815;46.760;19.604;2023-02-28T02:40:36;20.85;;;11.38;;
28627;SDS011;15815;46.760;19.604;2023-02-28T02:45:59;21.10;;;11.88;;
28627;SDS011;15815;46.760;19.604;2023-02-28T02:48:35;20.42;;;11.73;;
28627;SDS011;15815;46.760;19.604;2023-02-28T02:51:07;25.45;;;12.52;;
28627;SDS011;15815;46.760;19.604;2023-02-28T02:56:49;20.08;;;11.88;;
28627;SDS011;15815;46.760;19.604;2023-02-28T02:59:20;19.10;;;12.00;;
28627;SDS011;15815;46.760;19.604;2023-02-28T03:01:48;22.58;;;13.20;;
28627;SDS011;15815;46.760;19.604;2023-02-28T03:04:21;20.60;;;12.80;;
28627;SDS011;15815;46.760;19.604;2023-02-28T03:06:49;21.73;;;12.63;;
28627;SDS011;15815;46.760;19.604;2023-02-28T03:09:16;18.95;;;12.20;;
28627;SDS011;15815;46.760;19.604;2023-02-28T03:11:44;23.30;;;12.73;;
28627;SDS011;15815;46.760;19.604;2023-02-28T03:17:35;18.48;;;11.32;;
28627;SDS011;15815;46.760;19.604;2023-02-28T03:22:44;20.83;;;12.95;;
28627;SDS011;15815;46.760;19.604;2023-02-28T03:27:58;21.70;;;11.00;;
28627;SDS011;15815;46.760;19.604;2023-02-28T03:30:33;23.60;;;11.68;;
28627;SDS011;15815;46.760;19.604;2023-02-28T03:33:14;21.27;;;11.77;;
28627;SDS011;15815;46.760;19.604;2023-02-28T03:35:48;20.67;;;11.70;;
28627;SDS011;15815;46.760;19.604;2023-02-28T03:38:35;19.00;;;11.75;;
28627;SDS011;15815;46.760;19.604;2023-02-28T03:41:14;21.58;;;12.45;;
28627;SDS011;15815;46.760;19.604;2023-02-28T03:43:41;27.13;;;13.38;;
28627;SDS011;15815;46.760;19.604;2023-02-28T03:46:14;23.90;;;14.05;;
28627;SDS011;15815;46.760;19.604;2023-02-28T03:48:44;20.30;;;12.30;;
28627;SDS011;15815;46.760;19.604;2023-02-28T03:51:18;22.38;;;13.57;;
28627;SDS011;15815;46.760;19.604;2023-02-28T03:53:53;25.17;;;13.98;;
28627;SDS011;15815;46.760;19.604;2023-02-28T03:56:40;28.83;;;13.90;;
28627;SDS011;15815;46.760;19.604;2023-02-28T03:59:28;22.30;;;12.82;;
28627;SDS011;15815;46.760;19.604;2023-02-28T04:02:07;23.45;;;14.75;;
28627;SDS011;15815;46.760;19.604;2023-02-28T04:04:33;27.40;;;16.30;;
28627;SDS011;15815;46.760;19.604;2023-02-28T04:07:04;25.13;;;11.48;;
28627;SDS011;15815;46.760;19.604;2023-02-28T04:09:32;23.15;;;14.10;;
28627;SDS011;15815;46.760;19.604;2023-02-28T04:12:00;17.98;;;11.68;;
28627;SDS011;15815;46.760;19.604;2023-02-28T04:14:25;21.13;;;12.73;;
28627;SDS011;15815;46.760;19.604;2023-02-28T04:16:51;19.42;;;10.73;;
28627;SDS011;15815;46.760;19.604;2023-02-28T04:19:18;18.05;;;11.32;;
28627;SDS011;15815;46.760;19.604;2023-02-28T04:21:45;17.92;;;10.63;;
28627;SDS011;15815;46.760;19.604;2023-02-28T04:24:16;19.17;;;10.73;;
28627;SDS011;15815;46.760;19.604;2023-02-28T04:26:45;18.25;;;10.77;;
28627;SDS011;15815;46.760;19.604;2023-02-28T04:29:12;18.10;;;11.32;;
28627;SDS011;15815;46.760;19.604;2023-02-28T04:31:43;18.20;;;9.97;;
28627;SDS011;15815;46.760;19.604;2023-02-28T04:34:09;17.15;;;10.50;;
28627;SDS011;15815;46.760;19.604;2023-02-28T04:36:36;19.00;;;11.23;;
28627;SDS011;15815;46.760;19.604;2023-02-28T04:39:01;20.80;;;10.10;;
28627;SDS011;15815;46.760;19.604;2023-02-28T04:41:28;17.92;;;10.50;;
28627;SDS011;15815;46.760;19.604;2023-02-28T04:43:54;16.90;;;9.70;;
28627;SDS011;15815;46.760;19.604;2023-02-28T04:46:19;16.52;;;10.27;;
28627;SDS011;15815;46.760;19.604;2023-02-28T04:48:45;15.18;;;10.43;;
28627;SDS011;15815;46.760;19.604;2023-02-28T04:51:11;19.55;;;10.63;;
28627;SDS011;15815;46.760;19.604;2023-02-28T04:53:40;17.17;;;10.95;;
28627;SDS011;15815;46.760;19.604;2023-02-28T04:56:06;18.25;;;11.35;;
28627;SDS011;15815;46.760;19.604;2023-02-28T04:58:32;18.23;;;11.75;;
28627;SDS011;15815;46.760;19.604;2023-02-28T05:01:03;17.15;;;10.65;;
28627;SDS011;15815;46.760;19.604;2023-02-28T05:03:32;15.73;;;9.90;;
28627;SDS011;15815;46.760;19.604;2023-02-28T05:05:57;20.08;;;11.23;;
28627;SDS011;15815;46.760;19.604;2023-02-28T05:08:23;15.85;;;9.95;;
28627;SDS011;15815;46.760;19.604;2023-02-28T05:10:49;17.42;;;10.05;;
28627;SDS011;15815;46.760;19.604;2023-02-28T05:13:15;20.42;;;9.75;;
28627;SDS011;15815;46.760;19.604;2023-02-28T05:15:42;15.65;;;9.52;;
28627;SDS011;15815;46.760;19.604;2023-02-28T05:18:08;16.83;;;10.15;;
28627;SDS011;15815;46.760;19.604;2023-02-28T05:20:33;19.27;;;9.70;;
28627;SDS011;15815;46.760;19.604;2023-02-28T05:22:59;15.35;;;10.25;;
28627;SDS011;15815;46.760;19.604;2023-02-28T05:25:26;16.60;;;10.52;;
28627;SDS011;15815;46.760;19.604;2023-02-28T05:27:51;14.90;;;10.00;;
28627;SDS011;15815;46.760;19.604;2023-02-28T05:30:17;15.65;;;10.93;;
28627;SDS011;15815;46.760;19.604;2023-02-28T05:32:42;15.30;;;9.98;;
28627;SDS011;15815;46.760;19.604;2023-02-28T05:35:10;20.33;;;11.05;;
28627;SDS011;15815;46.760;19.604;2023-02-28T05:37:36;16.95;;;10.63;;
28627;SDS011;15815;46.760;19.604;2023-02-28T05:40:03;14.77;;;10.27;;
28627;SDS011;15815;46.760;19.604;2023-02-28T05:42:31;15.50;;;10.13;;
28627;SDS011;15815;46.760;19.604;2023-02-28T05:44:57;16.35;;;10.25;;
28627;SDS011;15815;46.760;19.604;2023-02-28T05:47:22;19.08;;;11.23;;
28627;SDS011;15815;46.760;19.604;2023-02-28T05:49:49;20.10;;;11.23;;
28627;SDS011;15815;46.760;19.604;2023-02-28T05:52:15;17.83;;;10.13;;
28627;SDS011;15815;46.760;19.604;2023-02-28T05:54:43;16.27;;;10.00;;
28627;SDS011;15815;46.760;19.604;2023-02-28T05:57:08;18.38;;;10.18;;
28627;SDS011;15815;46.760;19.604;2023-02-28T05:59:34;16.60;;;10.07;;
28627;SDS011;15815;46.760;19.604;2023-02-28T06:02:03;17.33;;;10.35;;
28627;SDS011;15815;46.760;19.604;2023-02-28T06:04:28;16.50;;;11.20;;
28627;SDS011;15815;46.760;19.604;2023-02-28T06:06:54;17.98;;;9.93;;
28627;SDS011;15815;46.760;19.604;2023-02-28T06:09:19;16.35;;;10.35;;
28627;SDS011;15815;46.760;19.604;2023-02-28T06:11:58;18.95;;;11.20;;
28627;SDS011;15815;46.760;19.604;2023-02-28T06:14:25;20.95;;;11.65;;
28627;SDS011;15815;46.760;19.604;2023-02-28T06:16:51;23.10;;;12.52;;
28627;SDS011;15815;46.760;19.604;2023-02-28T06:19:17;23.52;;;13.15;;
28627;SDS011;15815;46.760;19.604;2023-02-28T06:24:14;18.45;;;11.80;;
28627;SDS011;15815;46.760;19.604;2023-02-28T06:26:39;15.60;;;10.40;;
28627;SDS011;15815;46.760;19.604;2023-02-28T06:29:10;17.92;;;11.45;;
28627;SDS011;15815;46.760;19.604;2023-02-28T06:31:36;22.58;;;13.63;;
28627;SDS011;15815;46.760;19.604;2023-02-28T06:34:02;27.08;;;14.52;;
28627;SDS011;15815;46.760;19.604;2023-02-28T06:36:28;22.10;;;14.23;;
28627;SDS011;15815;46.760;19.604;2023-02-28T06:38:54;17.95;;;10.27;;
28627;SDS011;15815;46.760;19.604;2023-02-28T06:41:21;17.42;;;10.75;;
28627;SDS011;15815;46.760;19.604;2023-02-28T06:43:51;17.98;;;11.35;;
28627;SDS011;15815;46.760;19.604;2023-02-28T06:46:17;20.60;;;12.45;;
28627;SDS011;15815;46.760;19.604;2023-02-28T06:48:44;18.70;;;10.80;;
28627;SDS011;15815;46.760;19.604;2023-02-28T06:51:13;16.35;;;11.38;;
28627;SDS011;15815;46.760;19.604;2023-02-28T06:53:42;16.63;;;10.60;;
28627;SDS011;15815;46.760;19.604;2023-02-28T06:56:09;17.42;;;10.10;;
28627;SDS011;15815;46.760;19.604;2023-02-28T06:58:36;19.13;;;10.43;;
28627;SDS011;15815;46.760;19.604;2023-02-28T07:01:05;19.67;;;10.57;;
28627;SDS011;15815;46.760;19.604;2023-02-28T07:03:31;16.40;;;10.55;;
28627;SDS011;15815;46.760;19.604;2023-02-28T07:05:57;24.85;;;11.45;;
28627;SDS011;15815;46.760;19.604;2023-02-28T07:08:24;22.33;;;10.23;;
28627;SDS011;15815;46.760;19.604;2023-02-28T07:10:56;25.80;;;13.73;;
28627;SDS011;15815;46.760;19.604;2023-02-28T07:13:22;29.80;;;15.73;;
28627;SDS011;15815;46.760;19.604;2023-02-28T07:15:55;16.55;;;10.27;;
28627;SDS011;15815;46.760;19.604;2023-02-28T07:18:22;19.70;;;12.32;;
28627;SDS011;15815;46.760;19.604;2023-02-28T07:20:47;21.20;;;11.85;;
28627;SDS011;15815;46.760;19.604;2023-02-28T07:23:13;20.13;;;11.10;;
28627;SDS011;15815;46.760;19.604;2023-02-28T07:25:39;26.65;;;16.90;;
28627;SDS011;15815;46.760;19.604;2023-02-28T07:28:04;24.05;;;13.77;;
28627;SDS011;15815;46.760;19.604;2023-02-28T07:30:30;19.08;;;12.05;;
28627;SDS011;15815;46.760;19.604;2023-02-28T07:32:55;18.77;;;10.82;;
28627;SDS011;15815;46.760;19.604;2023-02-28T07:35:21;23.33;;;12.15;;
28627;SDS011;15815;46.760;19.604;2023-02-28T07:37:47;22.98;;;13.32;;
28627;SDS011;15815;46.760;19.604;2023-02-28T07:40:15;34.67;;;15.38;;
28627;SDS011;15815;46.760;19.604;2023-02-28T07:42:41;24.23;;;12.50;;
28627;SDS011;15815;46.760;19.604;2023-02-28T07:45:10;21.00;;;11.55;;
28627;SDS011;15815;46.760;19.604;2023-02-28T07:47:36;15.40;;;9.55;;
28627;SDS011;15815;46.760;19.604;2023-02-28T07:50:02;20.55;;;10.98;;
28627;SDS011;15815;46.760;19.604;2023-02-28T07:52:29;17.23;;;10.45;;
28627;SDS011;15815;46.760;19.604;2023-02-28T07:54:55;16.02;;;10.45;;
28627;SDS011;15815;46.760;19.604;2023-02-28T07:57:24;26.65;;;11.30;;
28627;SDS011;15815;46.760;19.604;2023-02-28T07:59:49;17.00;;;9.65;;
28627;SDS011;15815;46.760;19.604;2023-02-28T08:02:17;19.27;;;10.82;;
28627;SDS011;15815;46.760;19.604;2023-02-28T08:04:44;20.70;;;10.82;;
28627;SDS011;15815;46.760;19.604;2023-02-28T08:07:10;27.92;;;13.85;;
28627;SDS011;15815;46.760;19.604;2023-02-28T08:12:10;20.98;;;10.60;;
28627;SDS011;15815;46.760;19.604;2023-02-28T08:14:37;20.98;;;12.02;;
28627;SDS011;15815;46.760;19.604;2023-02-28T08:17:04;20.52;;;11.05;;
28627;SDS011;15815;46.760;19.604;2023-02-28T08:19:32;17.10;;;10.50;;
28627;SDS011;15815;46.760;19.604;2023-02-28T08:22:01;15.20;;;10.63;;
28627;SDS011;15815;46.760;19.604;2023-02-28T08:24:27;13.95;;;9.05;;
28627;SDS011;15815;46.760;19.604;2023-02-28T08:26:52;16.25;;;11.02;;
28627;SDS011;15815;46.760;19.604;2023-02-28T08:29:18;19.60;;;12.27;;
28627;SDS011;15815;46.760;19.604;2023-02-28T08:31:44;20.80;;;11.90;;
28627;SDS011;15815;46.760;19.604;2023-02-28T08:34:10;18.38;;;10.07;;
28627;SDS011;15815;46.760;19.604;2023-02-28T08:36:38;20.33;;;10.95;;
28627;SDS011;15815;46.760;19.604;2023-02-28T08:39:04;25.17;;;12.93;;
28627;SDS011;15815;46.760;19.604;2023-02-28T08:41:30;17.23;;;10.57;;
28627;SDS011;15815;46.760;19.604;2023-02-28T08:43:55;25.50;;;11.68;;
28627;SDS011;15815;46.760;19.604;2023-02-28T08:46:22;28.52;;;15.90;;
28627;SDS011;15815;46.760;19.604;2023-02-28T08:48:50;23.42;;;13.73;;
28627;SDS011;15815;46.760;19.604;2023-02-28T08:51:20;25.30;;;13.93;;
28627;SDS011;15815;46.760;19.604;2023-02-28T08:53:47;18.95;;;10.65;;
28627;SDS011;15815;46.760;19.604;2023-02-28T08:56:14;21.27;;;12.35;;
28627;SDS011;15815;46.760;19.604;2023-02-28T08:58:41;19.83;;;10.63;;
28627;SDS011;15815;46.760;19.604;2023-02-28T09:01:09;17.98;;;11.30;;
28627;SDS011;15815;46.760;19.604;2023-02-28T09:03:42;18.23;;;11.07;;
28627;SDS011;15815;46.760;19.604;2023-02-28T09:06:08;15.80;;;10.25;;
28627;SDS011;15815;46.760;19.604;2023-02-28T09:08:35;17.48;;;10.45;;
28627;SDS011;15815;46.760;19.604;2023-02-28T09:11:01;19.35;;;10.20;;
28627;SDS011;15815;46.760;19.604;2023-02-28T09:13:27;17.48;;;10.43;;
28627;SDS011;15815;46.760;19.604;2023-02-28T09:15:53;14.90;;;9.32;;
28627;SDS011;15815;46.760;19.604;2023-02-28T09:18:19;17.02;;;10.32;;
28627;SDS011;15815;46.760;19.604;2023-02-28T09:20:44;19.60;;;12.00;;
28627;SDS011;15815;46.760;19.604;2023-02-28T09:23:11;15.90;;;9.60;;
28627;SDS011;15815;46.760;19.604;2023-02-28T09:25:38;18.23;;;11.55;;
28627;SDS011;15815;46.760;19.604;2023-02-28T09:28:10;15.20;;;9.23;;
28627;SDS011;15815;46.760;19.604;2023-02-28T09:30:36;17.23;;;10.10;;
28627;SDS011;15815;46.760;19.604;2023-02-28T09:33:02;19.25;;;9.68;;
28627;SDS011;15815;46.760;19.604;2023-02-28T09:35:30;13.95;;;9.48;;
28627;SDS011;15815;46.760;19.604;2023-02-28T09:37:56;15.85;;;10.40;;
28627;SDS011;15815;46.760;19.604;2023-02-28T09:40:22;15.02;;;10.55;;
28627;SDS011;15815;46.760;19.604;2023-02-28T09:42:53;17.67;;;11.18;;
28627;SDS011;15815;46.760;19.604;2023-02-28T09:48:20;33.15;;;15.55;;
28627;SDS011;15815;46.760;19.604;2023-02-28T09:50:51;18.27;;;11.45;;
28627;SDS011;15815;46.760;19.604;2023-02-28T09:55:49;30.60;;;13.90;;
28627;SDS011;15815;46.760;19.604;2023-02-28T10:07:41;15.02;;;10.95;;
28627;SDS011;15815;46.760;19.604;2023-02-28T10:10:41;19.80;;;12.10;;
28627;SDS011;15815;46.760;19.604;2023-02-28T10:13:26;15.65;;;10.27;;
28627;SDS011;15815;46.760;19.604;2023-02-28T10:16:11;19.00;;;11.15;;
28627;SDS011;15815;46.760;19.604;2023-02-28T10:18:48;15.63;;;10.23;;
28627;SDS011;15815;46.760;19.604;2023-02-28T10:21:23;21.05;;;10.63;;
28627;SDS011;15815;46.760;19.604;2023-02-28T10:24:04;28.15;;;10.27;;
28627;SDS011;15815;46.760;19.604;2023-02-28T10:26:42;22.23;;;11.85;;
28627;SDS011;15815;46.760;19.604;2023-02-28T10:29:13;17.63;;;10.70;;
28627;SDS011;15815;46.760;19.604;2023-02-28T10:31:39;16.92;;;10.35;;
28627;SDS011;15815;46.760;19.604;2023-02-28T10:34:05;20.13;;;12.18;;
28627;SDS011;15815;46.760;19.604;2023-02-28T10:36:32;23.05;;;15.70;;
28627;SDS011;15815;46.760;19.604;2023-02-28T10:38:58;21.65;;;13.82;;
28627;SDS011;15815;46.760;19.604;2023-02-28T10:41:31;14.27;;;9.68;;
28627;SDS011;15815;46.760;19.604;2023-02-28T10:44:14;12.98;;;9.15;;
28627;SDS011;15815;46.760;19.604;2023-02-28T10:46:45;17.60;;;10.70;;
28627;SDS011;15815;46.760;19.604;2023-02-28T10:49:19;18.92;;;9.60;;
28627;SDS011;15815;46.760;19.604;2023-02-28T10:51:47;19.02;;;11.38;;
28627;SDS011;15815;46.760;19.604;2023-02-28T10:54:19;16.90;;;10.98;;
28627;SDS011;15815;46.760;19.604;2023-02-28T10:59:44;21.95;;;11.70;;
28627;SDS011;15815;46.760;19.604;2023-02-28T11:02:30;18.52;;;10.73;;
28627;SDS011;15815;46.760;19.604;2023-02-28T11:04:58;18.70;;;10.88;;
28627;SDS011;15815;46.760;19.604;2023-02-28T11:07:25;22.38;;;12.48;;
28627;SDS011;15815;46.760;19.604;2023-02-28T11:09:52;18.27;;;12.07;;
28627;SDS011;15815;46.760;19.604;2023-02-28T11:12:21;16.60;;;11.43;;
28627;SDS011;15815;46.760;19.604;2023-02-28T11:14:56;17.77;;;11.93;;
28627;SDS011;15815;46.760;19.604;2023-02-28T11:17:29;20.65;;;11.70;;
28627;SDS011;15815;46.760;19.604;2023-02-28T11:20:04;20.92;;;12.18;;
28627;SDS011;15815;46.760;19.604;2023-02-28T11:22:33;21.15;;;12.05;;
28627;SDS011;15815;46.760;19.604;2023-02-28T11:25:06;40.38;;;18.58;;
28627;SDS011;15815;46.760;19.604;2023-02-28T11:27:47;21.52;;;12.93;;
28627;SDS011;15815;46.760;19.604;2023-02-28T11:30:25;27.20;;;15.68;;
28627;SDS011;15815;46.760;19.604;2023-02-28T11:32:54;19.80;;;11.70;;
28627;SDS011;15815;46.760;19.604;2023-02-28T11:37:55;21.92;;;13.50;;
28627;SDS011;15815;46.760;19.604;2023-02-28T11:43:02;19.63;;;13.60;;
28627;SDS011;15815;46.760;19.604;2023-02-28T11:59:19;20.60;;;13.18;;
28627;SDS011;15815;46.760;19.604;2023-02-28T12:02:40;22.17;;;13.77;;
28627;SDS011;15815;46.760;19.604;2023-02-28T12:04:58;23.75;;;13.38;;
28627;SDS011;15815;46.760;19.604;2023-02-28T12:10:46;18.85;;;12.38;;
28627;SDS011;15815;46.760;19.604;2023-02-28T12:13:35;19.92;;;12.60;;
28627;SDS011;15815;46.760;19.604;2023-02-28T12:16:27;25.23;;;13.93;;
28627;SDS011;15815;46.760;19.604;2023-02-28T12:19:01;21.75;;;13.63;;
28627;SDS011;15815;46.760;19.604;2023-02-28T12:26:56;19.90;;;13.65;;
28627;SDS011;15815;46.760;19.604;2023-02-28T12:29:29;22.80;;;13.27;;
28627;SDS011;15815;46.760;19.604;2023-02-28T12:34:46;26.50;;;15.85;;
28627;SDS011;15815;46.760;19.604;2023-02-28T12:37:15;23.92;;;15.77;;
28627;SDS011;15815;46.760;19.604;2023-02-28T12:39:48;22.58;;;14.30;;
28627;SDS011;15815;46.760;19.604;2023-02-28T12:42:41;31.85;;;18.40;;
28627;SDS011;15815;46.760;19.604;2023-02-28T12:45:09;42.17;;;23.05;;
28627;SDS011;15815;46.760;19.604;2023-02-28T12:47:44;23.15;;;13.40;;
28627;SDS011;15815;46.760;19.604;2023-02-28T12:50:14;26.38;;;15.73;;
28627;SDS011;15815;46.760;19.604;2023-02-28T13:07:08;30.92;;;17.48;;
28627;SDS011;15815;46.760;19.604;2023-02-28T13:09:38;22.83;;;15.57;;
28627;SDS011;15815;46.760;19.604;2023-02-28T13:12:16;23.15;;;14.82;;
28627;SDS011;15815;46.760;19.604;2023-02-28T13:14:42;20.63;;;13.18;;
28627;SDS011;15815;46.760;19.604;2023-02-28T13:19:43;21.98;;;14.45;;
28627;SDS011;15815;46.760;19.604;2023-02-28T13:30:58;18.08;;;12.05;;
28627;SDS011;15815;46.760;19.604;2023-02-28T13:38:33;19.92;;;14.90;;
28627;SDS011;15815;46.760;19.604;2023-02-28T13:44:13;19.35;;;13.57;;
28627;SDS011;15815;46.760;19.604;2023-02-28T13:51:49;19.13;;;13.07;;
28627;SDS011;15815;46.760;19.604;2023-02-28T13:54:17;21.33;;;12.48;;
28627;SDS011;15815;46.760;19.604;2023-02-28T13:59:27;27.05;;;16.70;;
28627;SDS011;15815;46.760;19.604;2023-02-28T14:05:00;19.20;;;13.10;;
28627;SDS011;15815;46.760;19.604;2023-02-28T14:07:27;22.10;;;13.77;;
28627;SDS011;15815;46.760;19.604;2023-02-28T14:10:06;18.63;;;13.50;;
28627;SDS011;15815;46.760;19.604;2023-02-28T14:15:54;21.33;;;14.45;;
28627;SDS011;15815;46.760;19.604;2023-02-28T14:18:34;27.27;;;17.92;;
28627;SDS011;15815;46.760;19.604;2023-02-28T14:21:13;23.42;;;14.73;;
28627;SDS011;15815;46.760;19.604;2023-02-28T14:37:38;18.63;;;12.75;;
28627;SDS011;15815;46.760;19.604;2023-02-28T14:40:16;19.63;;;13.73;;
28627;SDS011;15815;46.760;19.604;2023-02-28T14:43:05;18.90;;;13.50;;
28627;SDS011;15815;46.760;19.604;2023-02-28T14:45:43;34.67;;;21.38;;
28627;SDS011;15815;46.760;19.604;2023-02-28T14:48:15;20.13;;;13.57;;
28627;SDS011;15815;46.760;19.604;2023-02-28T14:50:47;20.15;;;13.60;;
28627;SDS011;15815;46.760;19.604;2023-02-28T14:53:17;21.42;;;15.85;;
28627;SDS011;15815;46.760;19.604;2023-02-28T14:55:45;30.00;;;20.52;;
28627;SDS011;15815;46.760;19.604;2023-02-28T14:58:25;39.53;;;24.63;;
28627;SDS011;15815;46.760;19.604;2023-02-28T15:00:53;55.08;;;34.22;;
28627;SDS011;15815;46.760;19.604;2023-02-28T15:03:31;39.13;;;25.35;;
28627;SDS011;15815;46.760;19.604;2023-02-28T15:06:03;26.95;;;18.05;;
28627;SDS011;15815;46.760;19.604;2023-02-28T15:08:31;28.40;;;17.27;;
28627;SDS011;15815;46.760;19.604;2023-02-28T15:10:59;37.65;;;20.10;;
28627;SDS011;15815;46.760;19.604;2023-02-28T15:16:15;35.33;;;18.77;;
28627;SDS011;15815;46.760;19.604;2023-02-28T15:21:27;28.45;;;17.60;;
28627;SDS011;15815;46.760;19.604;2023-02-28T15:23:57;28.17;;;18.55;;
28627;SDS011;15815;46.760;19.604;2023-02-28T15:26:40;24.52;;;16.88;;
28627;SDS011;15815;46.760;19.604;2023-02-28T15:29:15;21.58;;;15.63;;
28627;SDS011;15815;46.760;19.604;2023-02-28T15:31:48;22.92;;;15.52;;
28627;SDS011;15815;46.760;19.604;2023-02-28T15:34:22;26.08;;;15.77;;
28627;SDS011;15815;46.760;19.604;2023-02-28T15:37:01;21.15;;;14.52;;
28627;SDS011;15815;46.760;19.604;2023-02-28T15:39:28;23.45;;;15.98;;
28627;SDS011;15815;46.760;19.604;2023-02-28T15:42:10;27.70;;;18.27;;
28627;SDS011;15815;46.760;19.604;2023-02-28T15:44:37;19.88;;;13.63;;
28627;SDS011;15815;46.760;19.604;2023-02-28T15:47:04;33.50;;;19.83;;
28627;SDS011;15815;46.760;19.604;2023-02-28T15:49:53;39.72;;;23.55;;
28627;SDS011;15815;46.760;19.604;2023-02-28T15:52:24;32.25;;;20.85;;
28627;SDS011;15815;46.760;19.604;2023-02-28T15:57:46;29.98;;;20.23;;
28627;SDS011;15815;46.760;19.604;2023-02-28T16:00:18;38.17;;;27.13;;
28627;SDS011;15815;46.760;19.604;2023-02-28T16:02:49;36.60;;;22.10;;
28627;SDS011;15815;46.760;19.604;2023-02-28T16:05:20;26.77;;;17.63;;
28627;SDS011;15815;46.760;19.604;2023-02-28T16:07:50;23.92;;;16.83;;
28627;SDS011;15815;46.760;19.604;2023-02-28T16:10:15;37.00;;;21.83;;
28627;SDS011;15815;46.760;19.604;2023-02-28T16:12:41;47.50;;;28.38;;
28627;SDS011;15815;46.760;19.604;2023-02-28T16:15:08;41.85;;;24.30;;
28627;SDS011;15815;46.760;19.604;2023-02-28T16:17:56;42.58;;;24.92;;
28627;SDS011;15815;46.760;19.604;2023-02-28T16:20:27;38.65;;;23.70;;
28627;SDS011;15815;46.760;19.604;2023-02-28T16:22:54;34.38;;;24.60;;
28627;SDS011;15815;46.760;19.604;2023-02-28T16:25:22;33.72;;;22.65;;
28627;SDS011;15815;46.760;19.604;2023-02-28T16:27:54;28.88;;;19.85;;
28627;SDS011;15815;46.760;19.604;2023-02-28T16:30:24;46.05;;;28.33;;
28627;SDS011;15815;46.760;19.604;2023-02-28T16:32:54;47.40;;;29.80;;
28627;SDS011;15815;46.760;19.604;2023-02-28T16:35:24;32.83;;;21.97;;
28627;SDS011;15815;46.760;19.604;2023-02-28T16:37:50;40.20;;;25.95;;
28627;SDS011;15815;46.760;19.604;2023-02-28T16:40:23;34.55;;;23.00;;
28627;SDS011;15815;46.760;19.604;2023-02-28T16:42:51;52.70;;;33.42;;
28627;SDS011;15815;46.760;19.604;2023-02-28T16:45:23;41.80;;;28.48;;
28627;SDS011;15815;46.760;19.604;2023-02-28T16:47:50;28.83;;;19.48;;
28627;SDS011;15815;46.760;19.604;2023-02-28T16:50:20;29.08;;;21.02;;
28627;SDS011;15815;46.760;19.604;2023-02-28T16:52:47;33.05;;;22.10;;
28627;SDS011;15815;46.760;19.604;2023-02-28T16:55:13;30.45;;;20.98;;
28627;SDS011;15815;46.760;19.604;2023-02-28T16:57:39;30.75;;;20.48;;
28627;SDS011;15815;46.760;19.604;2023-02-28T17:00:06;30.58;;;17.52;;
28627;SDS011;15815;46.760;19.604;2023-02-28T17:02:34;37.83;;;23.52;;
28627;SDS011;15815;46.760;19.604;2023-02-28T17:05:00;42.45;;;27.83;;
28627;SDS011;15815;46.760;19.604;2023-02-28T17:07:26;47.03;;;31.83;;
28627;SDS011;15815;46.760;19.604;2023-02-28T17:09:52;68.88;;;42.83;;